sensor_id;sensor_type;location;lat;lon;timestamp;P1;durP1;ratioP1;P2;durP2;ratioP2
42006;SDS011;27696;42.704;23.304;2023-03-05T00:01:03;31.45;;;20.30;;
42006;SDS011;27696;42.704;23.304;2023-03-05T00:03:32;32.80;;;20.70;;
42006;SDS011;27696;42.704;23.304;2023-03-05T00:05:57;33.47;;;20.85;;
42006;SDS011;27696;42.704;23.304;2023-03-05T00:08:23;29.92;;;20.45;;
42006;SDS011;27696;42.704;23.304;2023-03-05T00:10:55;34.42;;;21.63;;
42006;SDS011;27696;42.704;23.304;2023-03-05T00:13:24;32.40;;;21.80;;
42006;SDS011;27696;42.704;23.304;2023-03-05T00:15:49;32.20;;;21.98;;
42006;SDS011;27696;42.704;23.304;2023-03-05T00:18:15;32.67;;;21.00;;
42006;SDS011;27696;42.704;23.304;2023-03-05T00:20:40;34.30;;;20.70;;
42006;SDS011;27696;42.704;23.304;2023-03-05T00:23:06;32.75;;;20.48;;
42006;SDS011;27696;42.704;23.304;2023-03-05T00:25:33;30.23;;;20.70;;
42006;SDS011;27696;42.704;23.304;2023-03-05T00:27:59;29.60;;;20.25;;
42006;SDS011;27696;42.704;23.304;2023-03-05T00:30:24;34.85;;;21.20;;
42006;SDS011;27696;42.704;23.304;2023-03-05T00:32:50;37.45;;;21.77;;
42006;SDS011;27696;42.704;23.304;2023-03-05T00:35:15;40.70;;;22.35;;
42006;SDS011;27696;42.704;23.304;2023-03-05T00:37:41;34.17;;;20.95;;
42006;SDS011;27696;42.704;23.304;2023-03-05T00:40:06;29.20;;;21.38;;
42006;SDS011;27696;42.704;23.304;2023-03-05T00:42:32;33.50;;;20.92;;
42006;SDS011;27696;42.704;23.304;2023-03-05T00:45:02;36.97;;;23.38;;
42006;SDS011;27696;42.704;23.304;2023-03-05T00:47:31;31.98;;;20.67;;
42006;SDS011;27696;42.704;23.304;2023-03-05T00:49:56;35.22;;;22.42;;
42006;SDS011;27696;42.704;23.304;2023-03-05T00:52:22;29.45;;;20.23;;
42006;SDS011;27696;42.704;23.304;2023-03-05T00:54:47;30.42;;;20.98;;
42006;SDS011;27696;42.704;23.304;2023-03-05T00:57:13;31.48;;;20.63;;
42006;SDS011;27696;42.704;23.304;2023-03-05T00:59:38;28.52;;;19.88;;
42006;SDS011;27696;42.704;23.304;2023-03-05T01:02:03;28.92;;;18.92;;
42006;SDS011;27696;42.704;23.304;2023-03-05T01:04:29;27.83;;;21.02;;
42006;SDS011;27696;42.704;23.304;2023-03-05T01:06:54;31.52;;;19.42;;
42006;SDS011;27696;42.704;23.304;2023-03-05T01:09:20;28.20;;;18.88;;
42006;SDS011;27696;42.704;23.304;2023-03-05T01:11:45;30.13;;;20.13;;
42006;SDS011;27696;42.704;23.304;2023-03-05T01:14:11;29.92;;;20.23;;
42006;SDS011;27696;42.704;23.304;2023-03-05T01:16:37;26.33;;;18.63;;
42006;SDS011;27696;42.704;23.304;2023-03-05T01:19:02;27.92;;;18.95;;
42006;SDS011;27696;42.704;23.304;2023-03-05T01:21:28;29.75;;;18.65;;
42006;SDS011;27696;42.704;23.304;2023-03-05T01:23:53;26.13;;;17.85;;
42006;SDS011;27696;42.704;23.304;2023-03-05T01:26:18;29.50;;;18.27;;
42006;SDS011;27696;42.704;23.304;2023-03-05T01:28:44;23.40;;;17.50;;
42006;SDS011;27696;42.704;23.304;2023-03-05T01:31:09;34.47;;;19.73;;
42006;SDS011;27696;42.704;23.304;2023-03-05T01:33:35;29.77;;;20.52;;
42006;SDS011;27696;42.704;23.304;2023-03-05T01:36:00;28.13;;;18.63;;
42006;SDS011;27696;42.704;23.304;2023-03-05T01:38:26;27.98;;;19.65;;
42006;SDS011;27696;42.704;23.304;2023-03-05T01:40:51;30.52;;;20.20;;
42006;SDS011;27696;42.704;23.304;2023-03-05T01:48:40;28.35;;;17.55;;
42006;SDS011;27696;42.704;23.304;2023-03-05T01:51:10;27.00;;;19.17;;
42006;SDS011;27696;42.704;23.304;2023-03-05T01:53:35;31.00;;;19.60;;
42006;SDS011;27696;42.704;23.304;2023-03-05T01:56:01;31.05;;;20.20;;
42006;SDS011;27696;42.704;23.304;2023-03-05T01:58:26;28.52;;;19.30;;
42006;SDS011;27696;42.704;23.304;2023-03-05T02:00:52;26.40;;;18.48;;
42006;SDS011;27696;42.704;23.304;2023-03-05T02:03:19;29.17;;;19.02;;
42006;SDS011;27696;42.704;23.304;2023-03-05T02:05:46;29.30;;;20.30;;
42006;SDS011;27696;42.704;23.304;2023-03-05T02:08:15;28.35;;;19.30;;
42006;SDS011;27696;42.704;23.304;2023-03-05T02:10:43;29.15;;;18.58;;
42006;SDS011;27696;42.704;23.304;2023-03-05T02:13:11;30.20;;;18.50;;
42006;SDS011;27696;42.704;23.304;2023-03-05T02:15:38;28.90;;;18.98;;
42006;SDS011;27696;42.704;23.304;2023-03-05T02:18:05;27.80;;;18.80;;
42006;SDS011;27696;42.704;23.304;2023-03-05T02:20:41;27.27;;;18.30;;
42006;SDS011;27696;42.704;23.304;2023-03-05T02:23:08;28.02;;;18.77;;
42006;SDS011;27696;42.704;23.304;2023-03-05T02:25:34;26.65;;;18.20;;
42006;SDS011;27696;42.704;23.304;2023-03-05T02:30:49;28.50;;;19.88;;
42006;SDS011;27696;42.704;23.304;2023-03-05T02:33:16;33.40;;;20.58;;
42006;SDS011;27696;42.704;23.304;2023-03-05T02:35:42;30.45;;;19.50;;
42006;SDS011;27696;42.704;23.304;2023-03-05T02:38:08;27.00;;;19.23;;
42006;SDS011;27696;42.704;23.304;2023-03-05T02:40:34;32.83;;;20.40;;
42006;SDS011;27696;42.704;23.304;2023-03-05T02:43:00;31.25;;;20.08;;
42006;SDS011;27696;42.704;23.304;2023-03-05T02:45:25;32.45;;;21.30;;
42006;SDS011;27696;42.704;23.304;2023-03-05T02:47:51;30.65;;;20.67;;
42006;SDS011;27696;42.704;23.304;2023-03-05T02:50:16;32.55;;;20.38;;
42006;SDS011;27696;42.704;23.304;2023-03-05T02:52:41;35.17;;;21.80;;
42006;SDS011;27696;42.704;23.304;2023-03-05T02:55:07;31.63;;;21.27;;
42006;SDS011;27696;42.704;23.304;2023-03-05T02:57:33;34.00;;;22.30;;
42006;SDS011;27696;42.704;23.304;2023-03-05T02:59:58;35.55;;;23.40;;
42006;SDS011;27696;42.704;23.304;2023-03-05T03:02:23;33.42;;;23.20;;
42006;SDS011;27696;42.704;23.304;2023-03-05T03:04:49;33.63;;;23.45;;
42006;SDS011;27696;42.704;23.304;2023-03-05T03:07:14;37.65;;;23.83;;
42006;SDS011;27696;42.704;23.304;2023-03-05T03:09:40;30.30;;;21.98;;
42006;SDS011;27696;42.704;23.304;2023-03-05T03:12:09;34.78;;;22.98;;
42006;SDS011;27696;42.704;23.304;2023-03-05T03:14:35;36.28;;;22.60;;
42006;SDS011;27696;42.704;23.304;2023-03-05T03:17:04;34.47;;;23.15;;
42006;SDS011;27696;42.704;23.304;2023-03-05T03:19:31;40.13;;;24.27;;
42006;SDS011;27696;42.704;23.304;2023-03-05T03:21:56;34.17;;;22.38;;
42006;SDS011;27696;42.704;23.304;2023-03-05T03:24:22;34.70;;;22.27;;
42006;SDS011;27696;42.704;23.304;2023-03-05T03:26:47;34.90;;;23.02;;
42006;SDS011;27696;42.704;23.304;2023-03-05T03:29:14;39.22;;;23.10;;
42006;SDS011;27696;42.704;23.304;2023-03-05T03:31:39;36.28;;;23.77;;
42006;SDS011;27696;42.704;23.304;2023-03-05T03:34:05;36.15;;;23.10;;
42006;SDS011;27696;42.704;23.304;2023-03-05T03:36:31;34.05;;;22.92;;
42006;SDS011;27696;42.704;23.304;2023-03-05T03:38:58;32.17;;;21.67;;
42006;SDS011;27696;42.704;23.304;2023-03-05T03:41:23;35.78;;;24.10;;
42006;SDS011;27696;42.704;23.304;2023-03-05T03:43:49;37.53;;;24.20;;
42006;SDS011;27696;42.704;23.304;2023-03-05T03:46:14;37.75;;;23.80;;
42006;SDS011;27696;42.704;23.304;2023-03-05T03:48:39;37.83;;;24.83;;
42006;SDS011;27696;42.704;23.304;2023-03-05T03:51:05;39.28;;;22.83;;
42006;SDS011;27696;42.704;23.304;2023-03-05T03:53:31;36.72;;;24.05;;
42006;SDS011;27696;42.704;23.304;2023-03-05T03:55:57;37.83;;;25.35;;
42006;SDS011;27696;42.704;23.304;2023-03-05T03:58:23;40.42;;;24.05;;
42006;SDS011;27696;42.704;23.304;2023-03-05T04:00:48;37.72;;;24.15;;
42006;SDS011;27696;42.704;23.304;2023-03-05T04:03:14;39.38;;;24.58;;
42006;SDS011;27696;42.704;23.304;2023-03-05T04:05:39;37.08;;;23.83;;
42006;SDS011;27696;42.704;23.304;2023-03-05T04:08:05;39.90;;;25.00;;
42006;SDS011;27696;42.704;23.304;2023-03-05T04:10:36;34.45;;;24.45;;
42006;SDS011;27696;42.704;23.304;2023-03-05T04:13:04;37.35;;;24.52;;
42006;SDS011;27696;42.704;23.304;2023-03-05T04:15:30;36.03;;;24.02;;
42006;SDS011;27696;42.704;23.304;2023-03-05T04:17:56;43.30;;;24.33;;
42006;SDS011;27696;42.704;23.304;2023-03-05T04:20:22;41.58;;;24.60;;
42006;SDS011;27696;42.704;23.304;2023-03-05T04:22:47;35.42;;;23.20;;
42006;SDS011;27696;42.704;23.304;2023-03-05T04:25:13;38.53;;;23.77;;
42006;SDS011;27696;42.704;23.304;2023-03-05T04:27:38;35.53;;;23.58;;
42006;SDS011;27696;42.704;23.304;2023-03-05T04:30:07;37.83;;;24.73;;
42006;SDS011;27696;42.704;23.304;2023-03-05T04:32:33;35.97;;;23.58;;
42006;SDS011;27696;42.704;23.304;2023-03-05T04:34:59;35.25;;;21.98;;
42006;SDS011;27696;42.704;23.304;2023-03-05T04:37:24;34.42;;;23.00;;
42006;SDS011;27696;42.704;23.304;2023-03-05T04:39:50;37.60;;;23.83;;
42006;SDS011;27696;42.704;23.304;2023-03-05T04:42:16;36.25;;;22.15;;
42006;SDS011;27696;42.704;23.304;2023-03-05T04:44:43;36.35;;;21.85;;
42006;SDS011;27696;42.704;23.304;2023-03-05T04:47:08;37.53;;;23.30;;
42006;SDS011;27696;42.704;23.304;2023-03-05T04:49:34;34.92;;;23.02;;
42006;SDS011;27696;42.704;23.304;2023-03-05T04:51:59;35.88;;;23.52;;
42006;SDS011;27696;42.704;23.304;2023-03-05T04:54:24;34.40;;;22.45;;
42006;SDS011;27696;42.704;23.304;2023-03-05T04:56:50;38.25;;;23.80;;
42006;SDS011;27696;42.704;23.304;2023-03-05T04:59:15;36.47;;;22.88;;
42006;SDS011;27696;42.704;23.304;2023-03-05T05:01:41;35.78;;;23.35;;
42006;SDS011;27696;42.704;23.304;2023-03-05T05:04:07;37.25;;;22.08;;
42006;SDS011;27696;42.704;23.304;2023-03-05T05:06:32;39.70;;;23.42;;
42006;SDS011;27696;42.704;23.304;2023-03-05T05:08:58;36.90;;;22.60;;
42006;SDS011;27696;42.704;23.304;2023-03-05T05:11:23;39.42;;;22.67;;
42006;SDS011;27696;42.704;23.304;2023-03-05T05:13:48;36.03;;;22.75;;
42006;SDS011;27696;42.704;23.304;2023-03-05T05:16:14;39.92;;;23.65;;
42006;SDS011;27696;42.704;23.304;2023-03-05T05:18:40;38.13;;;23.40;;
42006;SDS011;27696;42.704;23.304;2023-03-05T05:21:06;41.28;;;23.33;;
42006;SDS011;27696;42.704;23.304;2023-03-05T05:23:33;32.75;;;22.65;;
42006;SDS011;27696;42.704;23.304;2023-03-05T05:25:59;33.50;;;22.98;;
42006;SDS011;27696;42.704;23.304;2023-03-05T05:28:25;35.90;;;23.77;;
42006;SDS011;27696;42.704;23.304;2023-03-05T05:30:51;42.55;;;24.77;;
42006;SDS011;27696;42.704;23.304;2023-03-05T05:33:16;37.00;;;23.48;;
42006;SDS011;27696;42.704;23.304;2023-03-05T05:35:42;43.10;;;26.15;;
42006;SDS011;27696;42.704;23.304;2023-03-05T05:38:07;37.95;;;22.67;;
42006;SDS011;27696;42.704;23.304;2023-03-05T05:40:32;38.67;;;24.85;;
42006;SDS011;27696;42.704;23.304;2023-03-05T05:42:58;33.08;;;22.05;;
42006;SDS011;27696;42.704;23.304;2023-03-05T05:45:23;34.20;;;22.70;;
42006;SDS011;27696;42.704;23.304;2023-03-05T05:47:49;37.80;;;23.42;;
42006;SDS011;27696;42.704;23.304;2023-03-05T05:50:14;37.20;;;22.10;;
42006;SDS011;27696;42.704;23.304;2023-03-05T05:52:40;38.83;;;21.85;;
42006;SDS011;27696;42.704;23.304;2023-03-05T05:55:06;43.72;;;25.17;;
42006;SDS011;27696;42.704;23.304;2023-03-05T05:57:32;33.25;;;22.20;;
42006;SDS011;27696;42.704;23.304;2023-03-05T05:59:58;35.78;;;21.83;;
42006;SDS011;27696;42.704;23.304;2023-03-05T06:02:23;33.50;;;21.85;;
42006;SDS011;27696;42.704;23.304;2023-03-05T06:04:49;36.92;;;22.73;;
42006;SDS011;27696;42.704;23.304;2023-03-05T06:07:14;35.80;;;22.15;;
42006;SDS011;27696;42.704;23.304;2023-03-05T06:09:39;29.85;;;20.98;;
42006;SDS011;27696;42.704;23.304;2023-03-05T06:12:06;46.42;;;25.98;;
42006;SDS011;27696;42.704;23.304;2023-03-05T06:14:35;32.33;;;20.10;;
42006;SDS011;27696;42.704;23.304;2023-03-05T06:17:01;31.35;;;19.80;;
42006;SDS011;27696;42.704;23.304;2023-03-05T06:19:26;33.38;;;19.90;;
42006;SDS011;27696;42.704;23.304;2023-03-05T06:21:51;31.67;;;18.83;;
42006;SDS011;27696;42.704;23.304;2023-03-05T06:24:18;28.90;;;18.90;;
42006;SDS011;27696;42.704;23.304;2023-03-05T06:26:44;31.83;;;19.38;;
42006;SDS011;27696;42.704;23.304;2023-03-05T06:29:10;32.38;;;20.23;;
42006;SDS011;27696;42.704;23.304;2023-03-05T06:31:36;32.92;;;20.45;;
42006;SDS011;27696;42.704;23.304;2023-03-05T06:34:03;34.17;;;21.10;;
42006;SDS011;27696;42.704;23.304;2023-03-05T06:36:29;32.47;;;18.85;;
42006;SDS011;27696;42.704;23.304;2023-03-05T06:38:54;35.60;;;19.63;;
42006;SDS011;27696;42.704;23.304;2023-03-05T06:41:21;33.63;;;19.65;;
42006;SDS011;27696;42.704;23.304;2023-03-05T06:43:48;33.00;;;18.23;;
42006;SDS011;27696;42.704;23.304;2023-03-05T06:46:18;31.45;;;18.77;;
42006;SDS011;27696;42.704;23.304;2023-03-05T06:48:45;30.83;;;19.17;;
42006;SDS011;27696;42.704;23.304;2023-03-05T06:51:15;30.05;;;18.67;;
42006;SDS011;27696;42.704;23.304;2023-03-05T06:53:41;27.10;;;18.05;;
42006;SDS011;27696;42.704;23.304;2023-03-05T06:56:07;28.98;;;18.85;;
42006;SDS011;27696;42.704;23.304;2023-03-05T06:58:33;28.98;;;18.42;;
42006;SDS011;27696;42.704;23.304;2023-03-05T07:00:59;28.85;;;18.33;;
42006;SDS011;27696;42.704;23.304;2023-03-05T07:03:24;32.05;;;18.73;;
42006;SDS011;27696;42.704;23.304;2023-03-05T07:05:50;27.85;;;19.48;;
42006;SDS011;27696;42.704;23.304;2023-03-05T07:08:15;29.55;;;18.67;;
42006;SDS011;27696;42.704;23.304;2023-03-05T07:10:41;32.38;;;18.55;;
42006;SDS011;27696;42.704;23.304;2023-03-05T07:13:08;33.13;;;20.25;;
42006;SDS011;27696;42.704;23.304;2023-03-05T07:15:36;29.17;;;18.77;;
42006;SDS011;27696;42.704;23.304;2023-03-05T07:18:02;35.63;;;19.55;;
42006;SDS011;27696;42.704;23.304;2023-03-05T07:20:27;30.58;;;18.88;;
42006;SDS011;27696;42.704;23.304;2023-03-05T07:22:53;34.53;;;20.00;;
42006;SDS011;27696;42.704;23.304;2023-03-05T07:25:19;32.47;;;19.88;;
42006;SDS011;27696;42.704;23.304;2023-03-05T07:27:45;31.30;;;20.13;;
42006;SDS011;27696;42.704;23.304;2023-03-05T07:30:11;38.65;;;21.20;;
42006;SDS011;27696;42.704;23.304;2023-03-05T07:32:37;35.97;;;21.55;;
42006;SDS011;27696;42.704;23.304;2023-03-05T07:35:02;36.45;;;20.95;;
42006;SDS011;27696;42.704;23.304;2023-03-05T07:37:28;35.78;;;22.15;;
42006;SDS011;27696;42.704;23.304;2023-03-05T07:39:53;37.53;;;23.33;;
42006;SDS011;27696;42.704;23.304;2023-03-05T07:42:19;35.83;;;23.08;;
42006;SDS011;27696;42.704;23.304;2023-03-05T07:44:44;40.03;;;24.35;;
42006;SDS011;27696;42.704;23.304;2023-03-05T07:47:10;35.33;;;22.55;;
42006;SDS011;27696;42.704;23.304;2023-03-05T07:49:35;30.50;;;18.25;;
42006;SDS011;27696;42.704;23.304;2023-03-05T07:52:01;33.63;;;23.27;;
42006;SDS011;27696;42.704;23.304;2023-03-05T07:54:26;40.97;;;24.92;;
42006;SDS011;27696;42.704;23.304;2023-03-05T07:56:52;34.33;;;22.85;;
42006;SDS011;27696;42.704;23.304;2023-03-05T07:59:18;37.30;;;23.92;;
42006;SDS011;27696;42.704;23.304;2023-03-05T08:01:43;33.70;;;22.98;;
42006;SDS011;27696;42.704;23.304;2023-03-05T08:04:10;38.83;;;23.75;;
42006;SDS011;27696;42.704;23.304;2023-03-05T08:06:38;40.45;;;23.23;;
42006;SDS011;27696;42.704;23.304;2023-03-05T08:09:04;37.70;;;23.60;;
42006;SDS011;27696;42.704;23.304;2023-03-05T08:11:30;36.40;;;23.23;;
42006;SDS011;27696;42.704;23.304;2023-03-05T08:13:55;35.50;;;22.25;;
42006;SDS011;27696;42.704;23.304;2023-03-05T08:16:23;35.35;;;22.83;;
42006;SDS011;27696;42.704;23.304;2023-03-05T08:18:52;35.60;;;23.95;;
42006;SDS011;27696;42.704;23.304;2023-03-05T08:21:20;37.65;;;24.10;;
42006;SDS011;27696;42.704;23.304;2023-03-05T08:23:50;36.05;;;21.58;;
42006;SDS011;27696;42.704;23.304;2023-03-05T08:26:18;34.85;;;22.90;;
42006;SDS011;27696;42.704;23.304;2023-03-05T08:28:44;33.38;;;23.35;;
42006;SDS011;27696;42.704;23.304;2023-03-05T08:31:10;35.08;;;22.58;;
42006;SDS011;27696;42.704;23.304;2023-03-05T08:33:37;32.38;;;21.30;;
42006;SDS011;27696;42.704;23.304;2023-03-05T08:36:02;36.67;;;23.75;;
42006;SDS011;27696;42.704;23.304;2023-03-05T08:38:28;39.13;;;25.35;;
42006;SDS011;27696;42.704;23.304;2023-03-05T08:40:53;36.75;;;23.80;;
42006;SDS011;27696;42.704;23.304;2023-03-05T08:43:18;38.78;;;24.20;;
42006;SDS011;27696;42.704;23.304;2023-03-05T08:45:44;34.63;;;23.63;;
42006;SDS011;27696;42.704;23.304;2023-03-05T08:48:11;42.85;;;24.70;;
42006;SDS011;27696;42.704;23.304;2023-03-05T08:50:37;44.75;;;25.73;;
42006;SDS011;27696;42.704;23.304;2023-03-05T08:53:02;35.67;;;24.35;;
42006;SDS011;27696;42.704;23.304;2023-03-05T08:55:27;37.20;;;24.45;;
42006;SDS011;27696;42.704;23.304;2023-03-05T08:57:53;39.25;;;24.52;;
42006;SDS011;27696;42.704;23.304;2023-03-05T09:00:18;31.58;;;22.85;;
42006;SDS011;27696;42.704;23.304;2023-03-05T09:02:44;34.15;;;23.02;;
42006;SDS011;27696;42.704;23.304;2023-03-05T09:05:09;35.35;;;23.02;;
42006;SDS011;27696;42.704;23.304;2023-03-05T09:07:35;38.88;;;25.25;;
42006;SDS011;27696;42.704;23.304;2023-03-05T09:10:02;38.53;;;23.27;;
42006;SDS011;27696;42.704;23.304;2023-03-05T09:12:29;32.75;;;22.40;;
42006;SDS011;27696;42.704;23.304;2023-03-05T09:14:54;34.13;;;24.25;;
42006;SDS011;27696;42.704;23.304;2023-03-05T09:17:21;31.80;;;22.90;;
42006;SDS011;27696;42.704;23.304;2023-03-05T09:19:46;32.75;;;21.25;;
42006;SDS011;27696;42.704;23.304;2023-03-05T09:22:12;32.88;;;22.33;;
42006;SDS011;27696;42.704;23.304;2023-03-05T09:24:37;30.33;;;21.90;;
42006;SDS011;27696;42.704;23.304;2023-03-05T09:27:02;28.02;;;20.83;;
42006;SDS011;27696;42.704;23.304;2023-03-05T09:29:28;29.98;;;21.02;;
42006;SDS011;27696;42.704;23.304;2023-03-05T09:31:55;29.60;;;20.85;;
42006;SDS011;27696;42.704;23.304;2023-03-05T09:34:20;29.73;;;21.00;;
42006;SDS011;27696;42.704;23.304;2023-03-05T09:36:46;26.45;;;20.08;;
42006;SDS011;27696;42.704;23.304;2023-03-05T09:39:12;30.23;;;20.65;;
42006;SDS011;27696;42.704;23.304;2023-03-05T09:46:53;28.73;;;20.73;;
42006;SDS011;27696;42.704;23.304;2023-03-05T09:52:30;25.23;;;18.70;;
42006;SDS011;27696;42.704;23.304;2023-03-05T09:55:03;28.75;;;20.08;;
42006;SDS011;27696;42.704;23.304;2023-03-05T09:57:38;27.65;;;18.95;;
42006;SDS011;27696;42.704;23.304;2023-03-05T10:00:53;28.00;;;20.42;;
42006;SDS011;27696;42.704;23.304;2023-03-05T10:02:58;29.85;;;19.77;;
42006;SDS011;27696;42.704;23.304;2023-03-05T10:07:52;26.10;;;19.38;;
42006;SDS011;27696;42.704;23.304;2023-03-05T10:10:22;28.77;;;20.10;;
42006;SDS011;27696;42.704;23.304;2023-03-05T10:12:51;25.30;;;19.05;;
42006;SDS011;27696;42.704;23.304;2023-03-05T10:15:20;26.05;;;19.08;;
42006;SDS011;27696;42.704;23.304;2023-03-05T10:27:32;25.50;;;16.70;;
42006;SDS011;27696;42.704;23.304;2023-03-05T10:42:51;21.05;;;16.15;;
42006;SDS011;27696;42.704;23.304;2023-03-05T10:45:22;21.58;;;15.93;;
42006;SDS011;27696;42.704;23.304;2023-03-05T10:50:17;25.27;;;16.45;;
42006;SDS011;27696;42.704;23.304;2023-03-05T10:52:44;19.52;;;15.07;;
42006;SDS011;27696;42.704;23.304;2023-03-05T10:55:16;21.90;;;16.27;;
42006;SDS011;27696;42.704;23.304;2023-03-05T10:57:43;22.88;;;16.13;;
42006;SDS011;27696;42.704;23.304;2023-03-05T11:00:19;22.52;;;16.83;;
42006;SDS011;27696;42.704;23.304;2023-03-05T11:03:02;22.58;;;16.20;;
42006;SDS011;27696;42.704;23.304;2023-03-05T11:14:03;20.67;;;14.05;;
42006;SDS011;27696;42.704;23.304;2023-03-05T11:16:29;19.52;;;15.80;;
42006;SDS011;27696;42.704;23.304;2023-03-05T11:24:35;20.63;;;15.43;;
42006;SDS011;27696;42.704;23.304;2023-03-05T11:27:01;26.35;;;17.55;;
42006;SDS011;27696;42.704;23.304;2023-03-05T11:29:28;19.88;;;16.83;;
42006;SDS011;27696;42.704;23.304;2023-03-05T11:31:55;21.45;;;16.70;;
42006;SDS011;27696;42.704;23.304;2023-03-05T11:34:22;22.30;;;16.48;;
42006;SDS011;27696;42.704;23.304;2023-03-05T11:39:15;23.85;;;16.92;;
42006;SDS011;27696;42.704;23.304;2023-03-05T11:44:32;22.02;;;16.85;;
42006;SDS011;27696;42.704;23.304;2023-03-05T11:47:12;21.10;;;15.95;;
42006;SDS011;27696;42.704;23.304;2023-03-05T11:50:01;18.60;;;14.27;;
42006;SDS011;27696;42.704;23.304;2023-03-05T11:52:38;18.80;;;14.60;;
42006;SDS011;27696;42.704;23.304;2023-03-05T11:57:43;18.38;;;13.45;;
42006;SDS011;27696;42.704;23.304;2023-03-05T12:00:17;21.65;;;14.60;;
42006;SDS011;27696;42.704;23.304;2023-03-05T12:02:46;17.08;;;13.90;;
42006;SDS011;27696;42.704;23.304;2023-03-05T12:05:16;19.95;;;15.05;;
42006;SDS011;27696;42.704;23.304;2023-03-05T12:07:43;22.23;;;15.18;;
42006;SDS011;27696;42.704;23.304;2023-03-05T12:10:18;19.95;;;14.57;;
42006;SDS011;27696;42.704;23.304;2023-03-05T12:23:55;18.33;;;13.90;;
42006;SDS011;27696;42.704;23.304;2023-03-05T12:42:45;20.50;;;12.68;;
42006;SDS011;27696;42.704;23.304;2023-03-05T12:47:46;18.30;;;14.32;;
42006;SDS011;27696;42.704;23.304;2023-03-05T12:52:51;17.60;;;13.63;;
42006;SDS011;27696;42.704;23.304;2023-03-05T12:55:18;19.88;;;13.88;;
42006;SDS011;27696;42.704;23.304;2023-03-05T12:57:48;21.33;;;14.18;;
42006;SDS011;27696;42.704;23.304;2023-03-05T13:00:24;17.83;;;13.98;;
42006;SDS011;27696;42.704;23.304;2023-03-05T13:02:55;18.38;;;15.05;;
42006;SDS011;27696;42.704;23.304;2023-03-05T13:05:29;26.45;;;14.73;;
42006;SDS011;27696;42.704;23.304;2023-03-05T13:08:17;18.88;;;13.23;;
42006;SDS011;27696;42.704;23.304;2023-03-05T13:10:50;17.63;;;13.43;;
42006;SDS011;27696;42.704;23.304;2023-03-05T13:13:16;18.27;;;13.52;;
42006;SDS011;27696;42.704;23.304;2023-03-05T13:15:44;17.40;;;13.70;;
42006;SDS011;27696;42.704;23.304;2023-03-05T13:18:18;15.57;;;12.82;;
42006;SDS011;27696;42.704;23.304;2023-03-05T13:23:23;18.17;;;12.63;;
42006;SDS011;27696;42.704;23.304;2023-03-05T13:31:35;18.88;;;14.35;;
42006;SDS011;27696;42.704;23.304;2023-03-05T13:39:36;17.17;;;14.13;;
42006;SDS011;27696;42.704;23.304;2023-03-05T13:42:26;18.17;;;13.80;;
42006;SDS011;27696;42.704;23.304;2023-03-05T13:45:00;22.48;;;14.45;;
42006;SDS011;27696;42.704;23.304;2023-03-05T13:47:28;19.48;;;13.82;;
42006;SDS011;27696;42.704;23.304;2023-03-05T13:50:03;20.65;;;14.88;;
42006;SDS011;27696;42.704;23.304;2023-03-05T13:52:34;21.25;;;15.93;;
42006;SDS011;27696;42.704;23.304;2023-03-05T13:55:01;22.48;;;16.35;;
42006;SDS011;27696;42.704;23.304;2023-03-05T13:57:33;24.35;;;15.95;;
42006;SDS011;27696;42.704;23.304;2023-03-05T14:02:59;22.90;;;14.82;;
42006;SDS011;27696;42.704;23.304;2023-03-05T14:05:45;22.52;;;15.60;;
42006;SDS011;27696;42.704;23.304;2023-03-05T14:08:17;21.25;;;15.95;;
42006;SDS011;27696;42.704;23.304;2023-03-05T14:10:44;19.42;;;14.82;;
42006;SDS011;27696;42.704;23.304;2023-03-05T14:13:11;22.05;;;15.35;;
42006;SDS011;27696;42.704;23.304;2023-03-05T14:15:38;20.73;;;15.32;;
42006;SDS011;27696;42.704;23.304;2023-03-05T14:18:07;24.85;;;15.40;;
42006;SDS011;27696;42.704;23.304;2023-03-05T14:20:56;24.50;;;15.70;;
42006;SDS011;27696;42.704;23.304;2023-03-05T14:23:34;22.52;;;15.98;;
42006;SDS011;27696;42.704;23.304;2023-03-05T14:26:10;26.58;;;16.60;;
42006;SDS011;27696;42.704;23.304;2023-03-05T14:28:49;19.65;;;14.85;;
42006;SDS011;27696;42.704;23.304;2023-03-05T14:31:16;22.30;;;16.48;;
42006;SDS011;27696;42.704;23.304;2023-03-05T14:33:42;22.92;;;15.88;;
42006;SDS011;27696;42.704;23.304;2023-03-05T14:36:08;20.85;;;15.13;;
42006;SDS011;27696;42.704;23.304;2023-03-05T14:38:34;22.33;;;15.15;;
42006;SDS011;27696;42.704;23.304;2023-03-05T14:43:59;20.27;;;14.93;;
42006;SDS011;27696;42.704;23.304;2023-03-05T14:46:25;20.30;;;15.85;;
42006;SDS011;27696;42.704;23.304;2023-03-05T14:48:50;25.58;;;15.57;;
42006;SDS011;27696;42.704;23.304;2023-03-05T14:51:16;33.72;;;23.23;;
42006;SDS011;27696;42.704;23.304;2023-03-05T14:53:43;27.52;;;20.20;;
42006;SDS011;27696;42.704;23.304;2023-03-05T14:56:23;23.88;;;17.63;;
42006;SDS011;27696;42.704;23.304;2023-03-05T14:58:50;40.97;;;32.67;;
42006;SDS011;27696;42.704;23.304;2023-03-05T15:01:16;26.58;;;15.68;;
42006;SDS011;27696;42.704;23.304;2023-03-05T15:03:41;23.60;;;15.30;;
42006;SDS011;27696;42.704;23.304;2023-03-05T15:06:08;22.98;;;15.48;;
42006;SDS011;27696;42.704;23.304;2023-03-05T15:08:48;22.33;;;15.95;;
42006;SDS011;27696;42.704;23.304;2023-03-05T15:11:13;26.45;;;16.20;;
42006;SDS011;27696;42.704;23.304;2023-03-05T15:13:38;21.05;;;15.50;;
42006;SDS011;27696;42.704;23.304;2023-03-05T15:16:04;22.83;;;15.75;;
42006;SDS011;27696;42.704;23.304;2023-03-05T15:18:30;25.42;;;16.45;;
42006;SDS011;27696;42.704;23.304;2023-03-05T15:20:56;22.08;;;15.65;;
42006;SDS011;27696;42.704;23.304;2023-03-05T15:23:21;26.33;;;15.80;;
42006;SDS011;27696;42.704;23.304;2023-03-05T15:25:47;22.60;;;15.70;;
42006;SDS011;27696;42.704;23.304;2023-03-05T15:28:13;20.42;;;15.40;;
42006;SDS011;27696;42.704;23.304;2023-03-05T15:30:41;20.83;;;13.95;;
42006;SDS011;27696;42.704;23.304;2023-03-05T15:33:09;20.65;;;14.80;;
42006;SDS011;27696;42.704;23.304;2023-03-05T15:35:36;21.85;;;15.07;;
42006;SDS011;27696;42.704;23.304;2023-03-05T15:38:02;21.58;;;14.77;;
42006;SDS011;27696;42.704;23.304;2023-03-05T15:40:28;21.58;;;15.30;;
42006;SDS011;27696;42.704;23.304;2023-03-05T15:42:54;22.45;;;15.20;;
42006;SDS011;27696;42.704;23.304;2023-03-05T15:45:20;19.02;;;14.05;;
42006;SDS011;27696;42.704;23.304;2023-03-05T15:47:50;22.08;;;14.95;;
42006;SDS011;27696;42.704;23.304;2023-03-05T15:50:17;20.50;;;15.40;;
42006;SDS011;27696;42.704;23.304;2023-03-05T15:52:43;21.58;;;14.93;;
42006;SDS011;27696;42.704;23.304;2023-03-05T15:55:08;19.83;;;14.63;;
42006;SDS011;27696;42.704;23.304;2023-03-05T15:57:35;21.45;;;14.50;;
42006;SDS011;27696;42.704;23.304;2023-03-05T16:00:01;19.23;;;14.50;;
42006;SDS011;27696;42.704;23.304;2023-03-05T16:02:29;23.85;;;15.23;;
42006;SDS011;27696;42.704;23.304;2023-03-05T16:04:54;20.65;;;14.82;;
42006;SDS011;27696;42.704;23.304;2023-03-05T16:07:19;24.50;;;14.68;;